Anchorage, AK (99514)

2:30 PM AKDT on August 27, 2016 (GMT -0800)
Airport Heights Elementary | | Change Station

Elev 131 ft 61.21 °N, 149.83 °W | Updated 11 minutes ago

Partly Cloudy
Partly Cloudy
72.9 °F
Feels Like 76 °F
N
6.0
Wind Variable Wind from NE
Gusts 6.0 mph

Today
High -- | Low -- °F
--% Chance of Precip.
Yesterday
High -- | Low -- °F
Precip. -- in
Pressure 30.04 in
Visibility 10.0 miles
Clouds Few 8000 ft
Heat Index 76 °F
Dew Point 58 °F
Humidity 59%
Rainfall 0.00 in
Snow Depth Not available.
6:40 AM 9:19 PM
Waning Crescent, 21% visible
METAR PAMR 272153Z 29004KT 10SM FEW080 21/12 A3004 RMK AO2 SLP173 T02110122
Pressure 30.04 in
Visibility 10.0 miles
Clouds Few 8000 ft
Heat Index 76 °F
Dew Point 58 °F
Humidity 59%
Rainfall 0.00 in
Snow Depth Not available.
6:40 AM 9:19 PM
Waning Crescent, 21% visible
METAR PAMR 272153Z 29004KT 10SM FEW080 21/12 A3004 RMK AO2 SLP173 T02110122

10-Day Weather Forecast

Almanac

Astronomy

Aug. 27, 2016 Rise Set
Actual Time
Civil Twilight
Nautical Twilight
Astronomical Twilight
Moon
Length of Visible Light
Length of Day
Tomorrow will be .
, % of the Moon is Illuminated

Today's Extremes

State Highs State Lows

Community

WunderPhotos

Upload Photos

1,935,455 photos uploaded!

WunderBlog® & News

Nearby

Air Quality

  Air Quality AQ Index Pollutant
Not available.

Snow Depth

Station Depth Elevation

Earthquake Activity

City Distance Mag. Time & Date
Minimum magnitude displayed is 2.5.

Coastal Water Temperatures

Place Temperature

Stations

Nearby Weather Stations

Station Location Temp. Windchill Dew Point Humidity Wind Precip. Elev Updated Type
                   

Watches & Warnings

There are currently no watches in effect.